Falcona — ER2662 — position and weather

sailwx.info

Track history (hours):
 
Tides and Currents Weather Stations Pressure Air Temp Water Temp Dewpoint Dewpoint Depression Visibility Wind Speed Wind Dir Waves Ship Positions

Falcona

Last reported at 2018-Apr-10 13:39 UTC. Time now 2018-Apr-19 17:35 UTC.
Position N 45°19' E 036°32'.
Warning: this ship's position is 9 days out of date.

Length 82 m; draft 3.8 m.

Type: Cargo ship. MMSI: 214182662.

Date/timePositionNaut miles runAvg speedWind from/ knotsBaromVisibWave heightAir tempDewpointWater temp
2018-Apr-10 13:39N 45°19' E 036°32'1 6.9
2018-Apr-10 13:30N 45°20' E 036°34'3 6.8
2018-Apr-10 13:00N 45°21' E 036°38'3 6.3
2018-Apr-10 12:30N 45°24' E 036°40'3 5.6
2018-Apr-10 12:00N 45°26' E 036°40'2 3.1
2018-Apr-10 11:28N 45°28' E 036°39'1 0.2
2018-Apr-10 05:46N 45°28' E 036°38'0 1.3
2018-Apr-10 05:30N 45°28' E 036°38'3 5.8
2018-Apr-10 04:59N 45°29' E 036°42'  
2018-Apr-02 22:04N 45°26' E 036°42'0 7.3
2018-Apr-02 22:00N 45°25' E 036°41'3 5.9
2018-Apr-02 21:30N 45°22' E 036°40'4 7.0
2018-Apr-02 21:00N 45°20' E 036°36'4 8.2
2018-Apr-02 20:29N 45°19' E 036°31'  
Track history (hours):
 
Tides and Currents Weather Stations Pressure Air Temp Water Temp Dewpoint Dewpoint Depression Visibility Wind Speed Wind Dir Waves Ship Positions

Falcona

Last reported at 2018-Apr-10 13:39 UTC. Time now 2018-Apr-19 17:35 UTC.
Position N 45°19' E 036°32'.
Warning: this ship's position is 9 days out of date.

Length 82 m; draft 3.8 m.

Type: Cargo ship. MMSI: 214182662.

Date/timePositionNaut miles runAvg speedWind from/ knotsBaromVisibWave heightAir tempDewpointWater temp
2018-Apr-10 13:39N 45°19' E 036°32'1 6.9
2018-Apr-10 13:30N 45°20' E 036°34'3 6.8
2018-Apr-10 13:00N 45°21' E 036°38'3 6.3
2018-Apr-10 12:30N 45°24' E 036°40'3 5.6
2018-Apr-10 12:00N 45°26' E 036°40'2 3.1
2018-Apr-10 11:28N 45°28' E 036°39'1 0.2
2018-Apr-10 05:46N 45°28' E 036°38'0 1.3
2018-Apr-10 05:30N 45°28' E 036°38'3 5.8
2018-Apr-10 04:59N 45°29' E 036°42'  
2018-Apr-02 22:04N 45°26' E 036°42'0 7.3
2018-Apr-02 22:00N 45°25' E 036°41'3 5.9
2018-Apr-02 21:30N 45°22' E 036°40'4 7.0
2018-Apr-02 21:00N 45°20' E 036°36'4 8.2
2018-Apr-02 20:29N 45°19' E 036°31'  

Dump ship's entire track history